Amber Lagoon — V7FS4 — position and weather

sailwx.info

Track history (hours):
 
Tides and Currents Weather Stations Pressure Air Temp Water Temp Dewpoint Dewpoint Depression Visibility Wind Speed Wind Dir Waves Ship Positions

Amber Lagoon

Last reported at 2016-Apr-28 13:23 UTC. Time now 2016-Apr-30 11:18 UTC.
Position N 38°20' W 030°18'.

Length 192 m; draft 9.8 m.

Type: Cargo ship. MMSI: 538090116.

Date/timePositionNaut miles runAvg speedWind from/ knotsBaromVisibWave heightAir tempDewpointWater temp
2016-Apr-28 13:23N 38°20' W 030°18'1315.8
2016-Apr-28 12:33N 38°24' W 030°02'1616.0
2016-Apr-28 11:33N 38°29' W 029°43'1616.3
2016-Apr-28 10:33N 38°34' W 029°23'1716.7
2016-Apr-28 09:33N 38°39' W 029°03'1616.4
2016-Apr-28 08:34N 38°44' W 028°43'1616.3
2016-Apr-28 07:33N 38°49' W 028°23'1616.2
2016-Apr-28 06:33N 38°54' W 028°03'1616.0
2016-Apr-28 05:33N 39°02' W 027°45'1616.1
2016-Apr-28 04:33N 39°11' W 027°28'1615.9
2016-Apr-28 03:33N 39°19' W 027°11'1616.0
2016-Apr-28 02:33N 39°28' W 026°53'  
2016-Apr-25 02:15N 49°41' W 004°24'1013.8
2016-Apr-25 01:30N 49°45' W 004°09'1314.0
2016-Apr-25 00:33N 49°49' W 003°50'1413.6
2016-Apr-24 23:34N 49°53' W 003°30'1312.7
2016-Apr-24 22:34N 49°57' W 003°11'1211.5
2016-Apr-24 21:34N 50°00' W 002°54'1110.8
2016-Apr-24 20:34N 50°04' W 002°38'1310.7
2016-Apr-24 19:19N 50°08' W 002°18'911.4
2016-Apr-24 18:33N 50°11' W 002°05'5014.8
2016-Apr-24 15:09N 50°22' W 000°48'915.7
2016-Apr-24 14:33N 50°25' W 000°34'1514.9
2016-Apr-24 13:33N 50°29' W 000°12'1413.7
2016-Apr-24 12:31N 50°32' E 000°10'1212.7
2016-Apr-24 11:32N 50°35' E 000°29'2712.7
2016-Apr-24 09:24N 50°50' E 001°05'1315.0
2016-Apr-24 08:33N 50°57' E 001°21'1716.6
2016-Apr-24 07:33N 51°09' E 001°39'1515.0
2016-Apr-24 06:33N 51°21' E 001°55'1212.5
2016-Apr-24 05:33N 51°22' E 002°14'1614.7
2016-Apr-24 04:28N 51°23' E 002°40'1010.9
2016-Apr-24 03:33N 51°25' E 002°56'1313.3
2016-Apr-24 02:33N 51°25' E 003°17'1211.9
2016-Apr-24 01:33N 51°26' E 003°36'7 7.0
2016-Apr-24 00:33N 51°22' E 003°45'9 9.1
2016-Apr-23 23:33N 51°26' E 003°58'9 8.8
2016-Apr-23 22:33N 51°24' E 004°12'4 4.4
2016-Apr-23 21:32N 51°21' E 004°17'0 0.3
2016-Apr-23 20:34N 51°21' E 004°18'1 0.6
2016-Apr-23 19:31N 51°20' E 004°18'4 4.4
2016-Apr-23 18:31N 51°17' E 004°23'0 0.0
2016-Apr-23 17:31N 51°17' E 004°23'0 0.0
2016-Apr-23 16:31N 51°17' E 004°23'0 0.0
2016-Apr-23 15:31N 51°17' E 004°23'0 0.0
2016-Apr-23 14:31N 51°17' E 004°23'0 0.0
2016-Apr-23 13:31N 51°17' E 004°23'0 0.0
2016-Apr-23 12:31N 51°17' E 004°23'0 0.0
2016-Apr-23 11:31N 51°17' E 004°23'0 0.0
2016-Apr-23 10:31N 51°17' E 004°23'0 0.0
2016-Apr-23 09:34N 51°17' E 004°23'0 0.0
2016-Apr-23 08:33N 51°17' E 004°23'0 0.0
2016-Apr-23 07:33N 51°17' E 004°23'0 0.0
2016-Apr-23 06:33N 51°17' E 004°23'0 0.0
2016-Apr-23 05:33N 51°17' E 004°23'0 0.0
2016-Apr-23 04:33N 51°17' E 004°23'0 0.0
2016-Apr-23 03:33N 51°17' E 004°23'0 0.0
2016-Apr-23 02:33N 51°17' E 004°23'0 0.0
2016-Apr-23 01:33N 51°17' E 004°23'0 0.0
2016-Apr-23 00:33N 51°17' E 004°23'0 0.0
2016-Apr-22 23:33N 51°17' E 004°23'0 0.0
2016-Apr-22 22:33N 51°17' E 004°23'0 0.0
2016-Apr-22 21:33N 51°17' E 004°23'0 0.0
2016-Apr-22 20:33N 51°17' E 004°23'0 0.0
2016-Apr-22 19:33N 51°17' E 004°23'0 0.0
2016-Apr-22 18:33N 51°17' E 004°23'0 0.0
2016-Apr-22 17:33N 51°17' E 004°23'0 0.0
2016-Apr-22 16:33N 51°17' E 004°23'0 0.0
2016-Apr-22 15:33N 51°17' E 004°23'0 0.0
2016-Apr-22 14:33N 51°17' E 004°23'0 0.0
2016-Apr-22 13:33N 51°17' E 004°23'0 0.0
2016-Apr-22 12:33N 51°17' E 004°23'0 0.0
2016-Apr-22 11:33N 51°17' E 004°23'0 0.0
2016-Apr-22 10:30N 51°17' E 004°23'0 0.0
2016-Apr-22 09:33N 51°17' E 004°23'0 0.0
2016-Apr-22 08:33N 51°17' E 004°23'0 0.0
2016-Apr-22 07:33N 51°17' E 004°23'0 0.0
2016-Apr-22 06:33N 51°17' E 004°23'0 0.0
2016-Apr-22 05:33N 51°17' E 004°23'0 0.0
2016-Apr-22 04:33N 51°17' E 004°23'0 0.0
2016-Apr-22 03:33N 51°17' E 004°23'0 0.0
2016-Apr-22 02:33N 51°17' E 004°23'0 0.0
2016-Apr-22 01:33N 51°17' E 004°23'2 1.7
2016-Apr-22 00:34N 51°17' E 004°20'1 0.5
2016-Apr-21 23:33N 51°17' E 004°19'9 8.5
2016-Apr-21 22:34N 51°24' E 004°11'9 8.7
2016-Apr-21 21:34N 51°24' E 003°57'10 9.7
2016-Apr-21 20:33N 51°25' E 003°42'9 8.5
2016-Apr-21 19:34N 51°25' E 003°28'1211.7
2016-Apr-21 18:33N 51°24' E 003°09'8 7.8
2016-Apr-21 17:33N 51°32' E 003°07'1313.4
2016-Apr-21 16:33N 51°45' E 003°13'9 8.9
2016-Apr-21 15:33N 51°53' E 003°16'1313.2
2016-Apr-21 14:33N 52°06' E 003°22'1313.5
2016-Apr-21 13:33N 52°19' E 003°26'1312.6
2016-Apr-21 12:33N 52°32' E 003°29'1312.6
2016-Apr-21 11:33N 52°43' E 003°37'1413.5
2016-Apr-21 10:31N 52°57' E 003°45'4 4.6
2016-Apr-21 09:33N 53°00' E 003°49'7 7.3
2016-Apr-21 08:33N 52°60' E 004°01'1414.0
2016-Apr-21 07:31N 53°09' E 004°20'1212.4
2016-Apr-21 06:32N 53°19' E 004°31'1111.6
2016-Apr-21 05:33N 53°29' E 004°41'1212.4
2016-Apr-21 04:33N 53°34' E 004°60'1313.0
2016-Apr-21 03:33N 53°38' E 005°20'1414.2
2016-Apr-21 02:33N 53°43' E 005°43'1514.7
2016-Apr-21 01:33N 53°47' E 006°07'1212.0
2016-Apr-21 00:33N 53°38' E 006°21'1312.9
2016-Apr-20 23:34N 53°33' E 006°41'1313.2
2016-Apr-20 22:33N 53°24' E 006°57'5 5.0
2016-Apr-20 21:33N 53°19' E 006°58'2 1.5
2016-Apr-20 20:31N 53°20' E 006°56'0 0.0
2016-Apr-20 19:31N 53°20' E 006°56'0 0.0
2016-Apr-20 18:31N 53°20' E 006°56'0 0.0
2016-Apr-20 17:31N 53°20' E 006°56'0 0.0
2016-Apr-20 16:31N 53°20' E 006°56'0 0.0
2016-Apr-20 15:31N 53°20' E 006°56'0 0.0
2016-Apr-20 14:31N 53°20' E 006°56'0 0.0
2016-Apr-20 13:31N 53°20' E 006°56'0 0.0
2016-Apr-20 12:28N 53°20' E 006°56'0 0.0
2016-Apr-20 11:31N 53°20' E 006°56'0 0.0
2016-Apr-20 10:31N 53°20' E 006°56'0 0.0
2016-Apr-20 09:31N 53°20' E 006°56'0 0.0
2016-Apr-20 08:31N 53°20' E 006°56'0 0.0
2016-Apr-20 07:31N 53°20' E 006°56'0 0.0
2016-Apr-20 06:31N 53°20' E 006°56'0 0.0
2016-Apr-20 05:31N 53°20' E 006°56'0 0.0
2016-Apr-20 04:31N 53°20' E 006°56'0 0.0
2016-Apr-20 03:28N 53°20' E 006°56'0 0.0
2016-Apr-20 02:31N 53°20' E 006°56'0 0.0
2016-Apr-20 01:31N 53°20' E 006°56'0 0.0
2016-Apr-20 00:28N 53°20' E 006°56'0 0.0
2016-Apr-19 23:31N 53°20' E 006°56'0 0.3
2016-Apr-19 22:33N 53°20' E 006°56'2 2.2
2016-Apr-19 21:33N 53°21' E 006°59'1111.1
2016-Apr-19 20:34N 53°30' E 006°48'1313.3
2016-Apr-19 19:34N 53°37' E 006°29'8 7.7
2016-Apr-19 18:34N 53°39' E 006°17'3 2.5
2016-Apr-19 17:34N 53°41' E 006°20'7 6.6
2016-Apr-19 16:34N 53°48' E 006°21'5 4.5
2016-Apr-19 15:33N 53°50' E 006°28'6 5.8
2016-Apr-19 14:33N 53°51' E 006°38'5 5.3
2016-Apr-19 13:33N 53°52' E 006°47'6 5.7
2016-Apr-19 12:34N 53°54' E 006°56'9 9.1
2016-Apr-19 11:34N 53°56' E 007°11'1110.8
2016-Apr-19 10:33N 53°59' E 007°29'10 9.6
2016-Apr-19 09:33N 53°55' E 007°44'1010.0
2016-Apr-19 08:34N 53°51' E 007°60'1111.5
2016-Apr-19 07:33N 53°44' E 008°15'1211.5
2016-Apr-19 06:33N 53°37' E 008°30'8 8.0
2016-Apr-19 05:33N 53°29' E 008°30'1313.0
2016-Apr-19 04:33N 53°16' E 008°29'1110.8
2016-Apr-19 03:33N 53°07' E 008°40'3 2.8
2016-Apr-19 02:33N 53°06' E 008°45'0 0.0
2016-Apr-19 01:33N 53°06' E 008°44'0 0.0
2016-Apr-19 00:33N 53°06' E 008°45'0 0.0
2016-Apr-18 23:33N 53°06' E 008°45'0 0.0
2016-Apr-18 22:33N 53°06' E 008°44'0 0.0
2016-Apr-18 21:33N 53°06' E 008°44'0 0.0
2016-Apr-18 20:33N 53°06' E 008°44'0 0.0
2016-Apr-18 19:33N 53°06' E 008°44'0 0.0
2016-Apr-18 18:33N 53°06' E 008°44'0 0.0
2016-Apr-18 17:33N 53°06' E 008°44'0 0.0
2016-Apr-18 16:33N 53°06' E 008°44'0 0.0
2016-Apr-18 15:33N 53°06' E 008°44'0 0.0
2016-Apr-18 14:33N 53°06' E 008°45'0 0.0
2016-Apr-18 13:33N 53°06' E 008°45'  
Track history (hours):
 
Tides and Currents Weather Stations Pressure Air Temp Water Temp Dewpoint Dewpoint Depression Visibility Wind Speed Wind Dir Waves Ship Positions

Amber Lagoon

Last reported at 2016-Apr-28 13:23 UTC. Time now 2016-Apr-30 11:18 UTC.
Position N 38°20' W 030°18'.

Length 192 m; draft 9.8 m.

Type: Cargo ship. MMSI: 538090116.

Date/timePositionNaut miles runAvg speedWind from/ knotsBaromVisibWave heightAir tempDewpointWater temp
2016-Apr-28 13:23N 38°20' W 030°18'1315.8
2016-Apr-28 12:33N 38°24' W 030°02'1616.0
2016-Apr-28 11:33N 38°29' W 029°43'1616.3
2016-Apr-28 10:33N 38°34' W 029°23'1716.7
2016-Apr-28 09:33N 38°39' W 029°03'1616.4
2016-Apr-28 08:34N 38°44' W 028°43'1616.3
2016-Apr-28 07:33N 38°49' W 028°23'1616.2
2016-Apr-28 06:33N 38°54' W 028°03'1616.0
2016-Apr-28 05:33N 39°02' W 027°45'1616.1
2016-Apr-28 04:33N 39°11' W 027°28'1615.9
2016-Apr-28 03:33N 39°19' W 027°11'1616.0
2016-Apr-28 02:33N 39°28' W 026°53'  
2016-Apr-25 02:15N 49°41' W 004°24'1013.8
2016-Apr-25 01:30N 49°45' W 004°09'1314.0
2016-Apr-25 00:33N 49°49' W 003°50'1413.6
2016-Apr-24 23:34N 49°53' W 003°30'1312.7
2016-Apr-24 22:34N 49°57' W 003°11'1211.5
2016-Apr-24 21:34N 50°00' W 002°54'1110.8
2016-Apr-24 20:34N 50°04' W 002°38'1310.7
2016-Apr-24 19:19N 50°08' W 002°18'911.4
2016-Apr-24 18:33N 50°11' W 002°05'5014.8
2016-Apr-24 15:09N 50°22' W 000°48'915.7
2016-Apr-24 14:33N 50°25' W 000°34'1514.9
2016-Apr-24 13:33N 50°29' W 000°12'1413.7
2016-Apr-24 12:31N 50°32' E 000°10'1212.7
2016-Apr-24 11:32N 50°35' E 000°29'2712.7
2016-Apr-24 09:24N 50°50' E 001°05'1315.0
2016-Apr-24 08:33N 50°57' E 001°21'1716.6
2016-Apr-24 07:33N 51°09' E 001°39'1515.0
2016-Apr-24 06:33N 51°21' E 001°55'1212.5
2016-Apr-24 05:33N 51°22' E 002°14'1614.7
2016-Apr-24 04:28N 51°23' E 002°40'1010.9
2016-Apr-24 03:33N 51°25' E 002°56'1313.3
2016-Apr-24 02:33N 51°25' E 003°17'1211.9
2016-Apr-24 01:33N 51°26' E 003°36'7 7.0
2016-Apr-24 00:33N 51°22' E 003°45'9 9.1
2016-Apr-23 23:33N 51°26' E 003°58'9 8.8
2016-Apr-23 22:33N 51°24' E 004°12'4 4.4
2016-Apr-23 21:32N 51°21' E 004°17'0 0.3
2016-Apr-23 20:34N 51°21' E 004°18'1 0.6
2016-Apr-23 19:31N 51°20' E 004°18'4 4.4
2016-Apr-23 18:31N 51°17' E 004°23'0 0.0
2016-Apr-23 17:31N 51°17' E 004°23'0 0.0
2016-Apr-23 16:31N 51°17' E 004°23'0 0.0
2016-Apr-23 15:31N 51°17' E 004°23'0 0.0
2016-Apr-23 14:31N 51°17' E 004°23'0 0.0
2016-Apr-23 13:31N 51°17' E 004°23'0 0.0
2016-Apr-23 12:31N 51°17' E 004°23'0 0.0
2016-Apr-23 11:31N 51°17' E 004°23'0 0.0
2016-Apr-23 10:31N 51°17' E 004°23'0 0.0
2016-Apr-23 09:34N 51°17' E 004°23'0 0.0
2016-Apr-23 08:33N 51°17' E 004°23'0 0.0
2016-Apr-23 07:33N 51°17' E 004°23'0 0.0
2016-Apr-23 06:33N 51°17' E 004°23'0 0.0
2016-Apr-23 05:33N 51°17' E 004°23'0 0.0
2016-Apr-23 04:33N 51°17' E 004°23'0 0.0
2016-Apr-23 03:33N 51°17' E 004°23'0 0.0
2016-Apr-23 02:33N 51°17' E 004°23'0 0.0
2016-Apr-23 01:33N 51°17' E 004°23'0 0.0
2016-Apr-23 00:33N 51°17' E 004°23'0 0.0
2016-Apr-22 23:33N 51°17' E 004°23'0 0.0
2016-Apr-22 22:33N 51°17' E 004°23'0 0.0
2016-Apr-22 21:33N 51°17' E 004°23'0 0.0
2016-Apr-22 20:33N 51°17' E 004°23'0 0.0
2016-Apr-22 19:33N 51°17' E 004°23'0 0.0
2016-Apr-22 18:33N 51°17' E 004°23'0 0.0
2016-Apr-22 17:33N 51°17' E 004°23'0 0.0
2016-Apr-22 16:33N 51°17' E 004°23'0 0.0
2016-Apr-22 15:33N 51°17' E 004°23'0 0.0
2016-Apr-22 14:33N 51°17' E 004°23'0 0.0
2016-Apr-22 13:33N 51°17' E 004°23'0 0.0
2016-Apr-22 12:33N 51°17' E 004°23'0 0.0
2016-Apr-22 11:33N 51°17' E 004°23'0 0.0
2016-Apr-22 10:30N 51°17' E 004°23'0 0.0
2016-Apr-22 09:33N 51°17' E 004°23'0 0.0
2016-Apr-22 08:33N 51°17' E 004°23'0 0.0
2016-Apr-22 07:33N 51°17' E 004°23'0 0.0
2016-Apr-22 06:33N 51°17' E 004°23'0 0.0
2016-Apr-22 05:33N 51°17' E 004°23'0 0.0
2016-Apr-22 04:33N 51°17' E 004°23'0 0.0
2016-Apr-22 03:33N 51°17' E 004°23'0 0.0
2016-Apr-22 02:33N 51°17' E 004°23'0 0.0
2016-Apr-22 01:33N 51°17' E 004°23'2 1.7
2016-Apr-22 00:34N 51°17' E 004°20'1 0.5
2016-Apr-21 23:33N 51°17' E 004°19'9 8.5
2016-Apr-21 22:34N 51°24' E 004°11'9 8.7
2016-Apr-21 21:34N 51°24' E 003°57'10 9.7
2016-Apr-21 20:33N 51°25' E 003°42'9 8.5
2016-Apr-21 19:34N 51°25' E 003°28'1211.7
2016-Apr-21 18:33N 51°24' E 003°09'8 7.8
2016-Apr-21 17:33N 51°32' E 003°07'1313.4
2016-Apr-21 16:33N 51°45' E 003°13'9 8.9
2016-Apr-21 15:33N 51°53' E 003°16'1313.2
2016-Apr-21 14:33N 52°06' E 003°22'1313.5
2016-Apr-21 13:33N 52°19' E 003°26'1312.6
2016-Apr-21 12:33N 52°32' E 003°29'1312.6
2016-Apr-21 11:33N 52°43' E 003°37'1413.5
2016-Apr-21 10:31N 52°57' E 003°45'4 4.6
2016-Apr-21 09:33N 53°00' E 003°49'7 7.3
2016-Apr-21 08:33N 52°60' E 004°01'1414.0
2016-Apr-21 07:31N 53°09' E 004°20'1212.4
2016-Apr-21 06:32N 53°19' E 004°31'1111.6
2016-Apr-21 05:33N 53°29' E 004°41'1212.4
2016-Apr-21 04:33N 53°34' E 004°60'1313.0
2016-Apr-21 03:33N 53°38' E 005°20'1414.2
2016-Apr-21 02:33N 53°43' E 005°43'1514.7
2016-Apr-21 01:33N 53°47' E 006°07'1212.0
2016-Apr-21 00:33N 53°38' E 006°21'1312.9
2016-Apr-20 23:34N 53°33' E 006°41'1313.2
2016-Apr-20 22:33N 53°24' E 006°57'5 5.0
2016-Apr-20 21:33N 53°19' E 006°58'2 1.5
2016-Apr-20 20:31N 53°20' E 006°56'0 0.0
2016-Apr-20 19:31N 53°20' E 006°56'0 0.0
2016-Apr-20 18:31N 53°20' E 006°56'0 0.0
2016-Apr-20 17:31N 53°20' E 006°56'0 0.0
2016-Apr-20 16:31N 53°20' E 006°56'0 0.0
2016-Apr-20 15:31N 53°20' E 006°56'0 0.0
2016-Apr-20 14:31N 53°20' E 006°56'0 0.0
2016-Apr-20 13:31N 53°20' E 006°56'0 0.0
2016-Apr-20 12:28N 53°20' E 006°56'0 0.0
2016-Apr-20 11:31N 53°20' E 006°56'0 0.0
2016-Apr-20 10:31N 53°20' E 006°56'0 0.0
2016-Apr-20 09:31N 53°20' E 006°56'0 0.0
2016-Apr-20 08:31N 53°20' E 006°56'0 0.0
2016-Apr-20 07:31N 53°20' E 006°56'0 0.0
2016-Apr-20 06:31N 53°20' E 006°56'0 0.0
2016-Apr-20 05:31N 53°20' E 006°56'0 0.0
2016-Apr-20 04:31N 53°20' E 006°56'0 0.0
2016-Apr-20 03:28N 53°20' E 006°56'0 0.0
2016-Apr-20 02:31N 53°20' E 006°56'0 0.0
2016-Apr-20 01:31N 53°20' E 006°56'0 0.0
2016-Apr-20 00:28N 53°20' E 006°56'0 0.0
2016-Apr-19 23:31N 53°20' E 006°56'0 0.3
2016-Apr-19 22:33N 53°20' E 006°56'2 2.2
2016-Apr-19 21:33N 53°21' E 006°59'1111.1
2016-Apr-19 20:34N 53°30' E 006°48'1313.3
2016-Apr-19 19:34N 53°37' E 006°29'8 7.7
2016-Apr-19 18:34N 53°39' E 006°17'3 2.5
2016-Apr-19 17:34N 53°41' E 006°20'7 6.6
2016-Apr-19 16:34N 53°48' E 006°21'5 4.5
2016-Apr-19 15:33N 53°50' E 006°28'6 5.8
2016-Apr-19 14:33N 53°51' E 006°38'5 5.3
2016-Apr-19 13:33N 53°52' E 006°47'6 5.7
2016-Apr-19 12:34N 53°54' E 006°56'9 9.1
2016-Apr-19 11:34N 53°56' E 007°11'1110.8
2016-Apr-19 10:33N 53°59' E 007°29'10 9.6
2016-Apr-19 09:33N 53°55' E 007°44'1010.0
2016-Apr-19 08:34N 53°51' E 007°60'1111.5
2016-Apr-19 07:33N 53°44' E 008°15'1211.5
2016-Apr-19 06:33N 53°37' E 008°30'8 8.0
2016-Apr-19 05:33N 53°29' E 008°30'1313.0
2016-Apr-19 04:33N 53°16' E 008°29'1110.8
2016-Apr-19 03:33N 53°07' E 008°40'3 2.8
2016-Apr-19 02:33N 53°06' E 008°45'0 0.0
2016-Apr-19 01:33N 53°06' E 008°44'0 0.0
2016-Apr-19 00:33N 53°06' E 008°45'0 0.0
2016-Apr-18 23:33N 53°06' E 008°45'0 0.0
2016-Apr-18 22:33N 53°06' E 008°44'0 0.0
2016-Apr-18 21:33N 53°06' E 008°44'0 0.0
2016-Apr-18 20:33N 53°06' E 008°44'0 0.0
2016-Apr-18 19:33N 53°06' E 008°44'0 0.0
2016-Apr-18 18:33N 53°06' E 008°44'0 0.0
2016-Apr-18 17:33N 53°06' E 008°44'0 0.0
2016-Apr-18 16:33N 53°06' E 008°44'0 0.0
2016-Apr-18 15:33N 53°06' E 008°44'0 0.0
2016-Apr-18 14:33N 53°06' E 008°45'0 0.0
2016-Apr-18 13:33N 53°06' E 008°45'  

Dump ship's entire track history